createdAt,value
2022-11-08T00:01:58.340Z,2.15
2022-11-08T00:04:24.966Z,1.90
2022-11-08T00:07:09.945Z,3.40
2022-11-08T00:09:55.032Z,2.45
2022-11-08T00:12:39.936Z,3.70
2022-11-08T00:15:06.804Z,3.03
2022-11-08T00:17:33.158Z,2.70
2022-11-08T00:19:59.489Z,3.38
2022-11-08T00:22:25.977Z,2.70
2022-11-08T00:24:52.221Z,2.00
2022-11-08T00:27:19.685Z,1.98
2022-11-08T00:29:46.015Z,2.13
2022-11-08T00:32:13.709Z,2.30
2022-11-08T00:34:39.991Z,2.38
2022-11-08T00:37:06.288Z,2.58
2022-11-08T00:39:32.729Z,2.78
2022-11-08T00:41:59.005Z,2.17
2022-11-08T00:44:25.460Z,2.95
2022-11-08T00:46:52.162Z,3.05
2022-11-08T00:49:19.638Z,2.75
2022-11-08T00:51:46.154Z,2.42
2022-11-08T00:54:13.791Z,2.65
2022-11-08T00:56:40.081Z,2.88
2022-11-08T00:59:06.425Z,2.28
2022-11-08T01:01:32.913Z,2.58
2022-11-08T01:03:59.303Z,2.42
2022-11-08T01:06:25.956Z,3.75
2022-11-08T01:08:52.414Z,3.05
2022-11-08T01:11:20.511Z,3.40
2022-11-08T01:13:46.845Z,3.38
2022-11-08T01:16:14.794Z,2.40
2022-11-08T01:18:41.425Z,2.40
2022-11-08T01:21:08.073Z,2.65
2022-11-08T01:23:34.510Z,2.45
2022-11-08T01:26:05.712Z,3.45
2022-11-08T01:28:35.640Z,2.35
2022-11-08T01:31:05.601Z,2.60
2022-11-08T01:33:32.467Z,2.88
2022-11-08T01:35:58.750Z,3.40
2022-11-08T01:38:25.205Z,2.40
2022-11-08T01:40:51.846Z,2.70
2022-11-08T01:43:38.448Z,2.65
2022-11-08T01:46:04.686Z,3.00
2022-11-08T01:48:31.422Z,2.97
2022-11-08T01:50:59.542Z,2.63
2022-11-08T01:53:26.539Z,1.98
2022-11-08T01:55:52.809Z,3.08
2022-11-08T01:58:21.324Z,2.70
2022-11-08T02:00:47.610Z,3.13
2022-11-08T02:03:16.202Z,2.53
2022-11-08T02:05:42.526Z,2.53
2022-11-08T02:08:19.448Z,2.13
2022-11-08T02:10:47.999Z,2.55
2022-11-08T02:13:16.862Z,2.72
2022-11-08T02:15:43.611Z,2.38
2022-11-08T02:18:10.497Z,2.40
2022-11-08T02:20:36.910Z,2.20
2022-11-08T02:23:13.714Z,2.72
2022-11-08T02:25:39.972Z,2.45
2022-11-08T02:28:06.209Z,2.97
2022-11-08T02:30:36.384Z,2.55
2022-11-08T02:33:22.030Z,2.72
2022-11-08T02:38:14.655Z,2.05
2022-11-08T02:40:51.130Z,2.85
2022-11-08T02:43:17.709Z,3.38
2022-11-08T02:45:43.999Z,2.80
2022-11-08T02:48:10.334Z,2.38
2022-11-08T02:50:36.657Z,3.33
2022-11-08T02:53:02.994Z,2.92
2022-11-08T02:55:29.461Z,3.30
2022-11-08T02:57:56.089Z,2.35
2022-11-08T03:00:22.353Z,2.90
2022-11-08T03:02:52.021Z,2.95
2022-11-08T03:05:18.583Z,3.05
2022-11-08T03:07:44.863Z,3.70
2022-11-08T03:10:11.693Z,2.60
2022-11-08T03:12:38.567Z,2.40
2022-11-08T03:15:06.413Z,2.75
2022-11-08T03:17:32.802Z,2.22
2022-11-08T03:19:59.081Z,2.80
2022-11-08T03:22:25.350Z,2.55
2022-11-08T03:24:51.620Z,2.60
2022-11-08T03:27:19.169Z,2.25
2022-11-08T03:29:45.773Z,2.58
2022-11-08T03:32:12.220Z,2.53
2022-11-08T03:34:38.529Z,3.33
2022-11-08T03:37:05.146Z,2.55
2022-11-08T03:39:31.703Z,2.38
2022-11-08T03:42:00.725Z,2.67
2022-11-08T03:44:27.028Z,2.35
2022-11-08T03:46:53.295Z,3.13
2022-11-08T03:49:19.588Z,2.95
2022-11-08T03:51:45.866Z,2.00
2022-11-08T03:54:12.224Z,2.45
2022-11-08T03:56:38.664Z,2.60
2022-11-08T03:59:04.939Z,3.00
2022-11-08T04:01:31.950Z,3.33
2022-11-08T04:03:58.316Z,2.70
2022-11-08T04:06:24.627Z,1.88
2022-11-08T04:08:50.982Z,2.35
2022-11-08T04:11:35.672Z,2.20
2022-11-08T04:14:20.928Z,2.70
2022-11-08T04:16:47.232Z,2.53
2022-11-08T04:19:32.101Z,2.05
2022-11-08T04:21:58.656Z,2.55
2022-11-08T04:24:24.922Z,2.63
2022-11-08T04:26:51.189Z,1.98
2022-11-08T04:29:17.494Z,2.42
2022-11-08T04:31:43.753Z,2.88
2022-11-08T04:34:10.057Z,2.80
2022-11-08T04:36:36.332Z,2.65
2022-11-08T04:39:02.920Z,2.08
2022-11-08T04:41:29.220Z,1.80
2022-11-08T04:43:56.323Z,2.58
2022-11-08T04:46:23.819Z,2.58
2022-11-08T04:48:50.893Z,1.88
2022-11-08T04:51:21.708Z,1.90
2022-11-08T04:53:48.011Z,2.28
2022-11-08T04:56:15.574Z,2.47
2022-11-08T04:58:42.925Z,2.88
2022-11-08T05:01:10.299Z,2.78
2022-11-08T05:03:36.674Z,2.50
2022-11-08T05:06:03.948Z,2.40
2022-11-08T05:08:30.260Z,3.25
2022-11-08T05:11:04.069Z,3.50
2022-11-08T05:13:30.598Z,3.08
2022-11-08T05:16:10.407Z,2.80
2022-11-08T05:18:36.661Z,2.80
2022-11-08T05:21:21.830Z,2.20
2022-11-08T05:23:48.725Z,2.13
2022-11-08T05:26:15.333Z,2.60
2022-11-08T05:28:41.621Z,2.60
2022-11-08T05:31:08.055Z,2.20
2022-11-08T05:33:34.390Z,3.13
2022-11-08T05:36:06.071Z,2.20
2022-11-08T05:38:32.952Z,2.63
2022-11-08T05:41:06.979Z,2.22
2022-11-08T05:43:33.306Z,2.63
2022-11-08T05:45:59.952Z,2.35
2022-11-08T05:48:26.289Z,2.50
2022-11-08T05:50:52.744Z,2.90
2022-11-08T05:53:19.413Z,2.20
2022-11-08T05:55:46.069Z,1.95
2022-11-08T05:58:12.353Z,2.38
2022-11-08T06:00:38.611Z,2.28
2022-11-08T06:03:05.796Z,2.13
2022-11-08T06:05:32.334Z,1.95
2022-11-08T06:07:58.577Z,1.90
2022-11-08T06:10:25.573Z,2.65
2022-11-08T06:12:52.093Z,2.65
2022-11-08T06:15:18.465Z,2.22
2022-11-08T06:17:44.734Z,1.83
2022-11-08T06:20:14.067Z,2.30
2022-11-08T06:22:41.312Z,2.65
2022-11-08T06:25:07.776Z,3.38
2022-11-08T06:27:34.082Z,3.00
2022-11-08T06:30:00.387Z,3.72
2022-11-08T06:32:26.680Z,3.85
2022-11-08T06:34:52.953Z,3.15
2022-11-08T06:37:19.252Z,2.88
2022-11-08T06:39:45.665Z,2.80
2022-11-08T06:42:12.022Z,3.08
2022-11-08T06:44:38.313Z,4.00
2022-11-08T06:47:04.625Z,3.10
2022-11-08T06:49:30.899Z,3.58
2022-11-08T06:51:57.155Z,2.90
2022-11-08T06:54:26.085Z,2.85
2022-11-08T06:56:55.635Z,2.30
2022-11-08T06:59:23.098Z,3.25
2022-11-08T07:01:49.582Z,2.72
2022-11-08T07:04:15.894Z,2.17
2022-11-08T07:06:42.202Z,2.40
2022-11-08T07:09:08.774Z,2.80
2022-11-08T07:11:35.167Z,2.50
2022-11-08T07:14:01.429Z,2.75
2022-11-08T07:16:27.762Z,2.88
2022-11-08T07:18:55.646Z,2.83
2022-11-08T07:21:22.253Z,2.65
2022-11-08T07:23:48.804Z,2.95
2022-11-08T07:26:15.294Z,3.20
2022-11-08T07:28:41.688Z,2.17
2022-11-08T07:31:08.314Z,2.72
2022-11-08T07:33:35.072Z,2.15
2022-11-08T07:36:01.560Z,2.95
2022-11-08T07:38:27.885Z,1.83
2022-11-08T07:40:58.441Z,2.38
2022-11-08T07:43:25.466Z,2.30
2022-11-08T07:45:56.404Z,2.50
2022-11-08T07:48:23.010Z,2.33
2022-11-08T07:50:49.605Z,2.25
2022-11-08T07:53:16.275Z,2.90
2022-11-08T07:55:42.806Z,2.67
2022-11-08T07:58:10.641Z,2.78
2022-11-08T08:00:37.480Z,2.40
2022-11-08T08:03:04.575Z,2.00
2022-11-08T08:05:33.784Z,2.33
2022-11-08T08:08:01.898Z,2.33
2022-11-08T08:10:28.886Z,2.65
2022-11-08T08:12:55.769Z,2.20
2022-11-08T08:15:22.156Z,1.80
2022-11-08T08:17:48.428Z,1.90
2022-11-08T08:20:14.969Z,2.30
2022-11-08T08:22:45.142Z,1.67
2022-11-08T08:25:11.798Z,3.28
2022-11-08T08:27:38.045Z,2.85
2022-11-08T08:30:04.857Z,2.50
2022-11-08T08:32:31.806Z,2.15
2022-11-08T08:34:58.122Z,2.67
2022-11-08T08:37:24.456Z,2.33
2022-11-08T08:39:50.723Z,3.78
2022-11-08T08:42:16.978Z,1.92
2022-11-08T08:44:43.257Z,2.70
2022-11-08T08:47:09.529Z,2.92
2022-11-08T08:49:35.801Z,2.28
2022-11-08T08:52:02.081Z,2.35
2022-11-08T08:54:29.561Z,3.58
2022-11-08T08:56:55.974Z,2.42
2022-11-08T09:02:09.226Z,2.33
2022-11-08T09:04:35.826Z,3.00
2022-11-08T09:07:02.209Z,2.60
2022-11-08T09:09:28.522Z,2.75
2022-11-08T09:11:54.769Z,3.45
2022-11-08T09:14:21.016Z,2.70
2022-11-08T09:16:47.276Z,2.53
2022-11-08T09:19:13.528Z,2.00
2022-11-08T09:21:39.841Z,2.60
2022-11-08T09:24:06.383Z,2.60
2022-11-08T09:26:32.621Z,2.58
2022-11-08T09:28:59.874Z,2.20
2022-11-08T09:31:26.141Z,2.40
2022-11-08T09:33:52.619Z,2.08
2022-11-08T09:36:18.989Z,2.63
2022-11-08T09:38:45.242Z,2.10
2022-11-08T09:41:32.127Z,2.30
2022-11-08T09:44:09.880Z,2.58
2022-11-08T09:46:43.517Z,2.00
2022-11-08T09:49:17.034Z,2.33
2022-11-08T09:51:43.419Z,1.70
2022-11-08T09:54:27.977Z,2.35
2022-11-08T09:56:55.564Z,1.80
2022-11-08T09:59:31.707Z,1.88
2022-11-08T10:01:58.018Z,2.35
2022-11-08T10:04:25.877Z,2.28
2022-11-08T10:06:58.214Z,2.40
2022-11-08T10:09:46.160Z,2.13
2022-11-08T10:12:25.303Z,3.00
2022-11-08T10:14:54.402Z,2.72
2022-11-08T10:17:20.998Z,2.10
2022-11-08T10:20:07.273Z,2.35
2022-11-08T10:22:33.711Z,2.75
2022-11-08T10:25:07.208Z,2.38
2022-11-08T10:27:38.750Z,1.60
2022-11-08T10:30:06.904Z,2.95
2022-11-08T10:32:34.548Z,3.47
2022-11-08T10:35:15.977Z,2.90
2022-11-08T10:37:43.530Z,2.13
2022-11-08T10:40:25.005Z,1.95
2022-11-08T10:42:52.936Z,2.10
2022-11-08T10:45:19.172Z,1.98
2022-11-08T10:47:46.605Z,1.98
2022-11-08T10:50:18.802Z,2.20
2022-11-08T10:53:01.246Z,2.08
2022-11-08T10:55:33.461Z,2.25
2022-11-08T10:58:00.335Z,1.77
2022-11-08T11:00:29.281Z,3.05
2022-11-08T11:02:57.342Z,2.30
2022-11-08T11:05:26.601Z,2.78
2022-11-08T11:07:56.141Z,2.53
2022-11-08T11:10:25.337Z,2.50
2022-11-08T11:12:59.814Z,2.33
2022-11-08T11:15:31.010Z,1.90
2022-11-08T11:17:57.308Z,2.55
2022-11-08T11:20:24.026Z,2.65
2022-11-08T11:22:51.238Z,2.60
2022-11-08T11:25:18.998Z,3.17
2022-11-08T11:27:48.513Z,3.20
2022-11-08T11:30:31.445Z,2.35
2022-11-08T11:32:59.703Z,2.50
2022-11-08T11:35:28.766Z,2.75
2022-11-08T11:37:56.115Z,2.40
2022-11-08T11:40:40.634Z,2.70
2022-11-08T11:43:19.692Z,2.58
2022-11-08T11:45:52.122Z,3.40
2022-11-08T11:48:27.254Z,2.50
2022-11-08T11:50:53.799Z,2.20
2022-11-08T11:53:38.783Z,2.30
2022-11-08T11:56:11.223Z,2.65
2022-11-08T11:58:46.357Z,2.55
2022-11-08T12:01:31.422Z,2.65
2022-11-08T12:04:11.225Z,2.38
2022-11-08T12:06:54.217Z,3.75
2022-11-08T12:09:20.488Z,2.42
2022-11-08T12:11:53.117Z,2.00
2022-11-08T12:14:38.322Z,2.03
2022-11-08T12:17:10.489Z,2.00
2022-11-08T12:19:42.730Z,2.22
2022-11-08T12:22:38.138Z,2.38
2022-11-08T12:25:05.252Z,1.80
2022-11-08T12:27:31.514Z,2.38
2022-11-08T12:30:18.048Z,2.85
2022-11-08T12:32:54.048Z,1.90
2022-11-08T12:35:36.915Z,2.58
2022-11-08T12:38:09.046Z,5.05
2022-11-08T12:40:45.446Z,2.63
2022-11-08T12:43:14.814Z,1.88
2022-11-08T12:45:41.177Z,2.33
2022-11-08T12:48:20.066Z,1.92
2022-11-08T12:51:00.285Z,2.00
2022-11-08T12:53:48.560Z,1.80
2022-11-08T12:56:17.503Z,2.13
2022-11-08T12:58:51.229Z,2.38
2022-11-08T13:01:19.006Z,2.17
2022-11-08T13:03:45.920Z,1.88
2022-11-08T13:06:18.264Z,2.58
2022-11-08T13:08:50.801Z,2.67
2022-11-08T13:11:22.342Z,2.15
2022-11-08T13:13:50.438Z,1.73
2022-11-08T13:16:18.254Z,2.10
2022-11-08T13:18:53.746Z,2.50
2022-11-08T13:21:25.889Z,2.47
2022-11-08T13:23:52.561Z,2.90
2022-11-08T13:26:21.897Z,2.42
2022-11-08T13:28:48.591Z,2.20
2022-11-08T13:31:33.841Z,2.53
2022-11-08T13:34:00.088Z,2.63
2022-11-08T13:36:35.629Z,2.58
2022-11-08T13:39:17.451Z,1.85
2022-11-08T13:42:00.723Z,2.10
2022-11-08T13:44:45.859Z,1.75
2022-11-08T13:47:30.775Z,2.25
2022-11-08T13:50:16.027Z,2.65
2022-11-08T13:52:46.474Z,1.83
2022-11-08T13:55:31.812Z,1.98
2022-11-08T13:58:02.047Z,1.85
2022-11-08T14:00:54.762Z,2.20
2022-11-08T14:03:44.448Z,2.30
2022-11-08T14:06:26.868Z,2.42
2022-11-08T14:09:01.850Z,3.50
2022-11-08T14:11:40.156Z,1.95
2022-11-08T14:14:15.552Z,1.88
2022-11-08T14:16:46.340Z,1.95
2022-11-08T14:19:23.029Z,2.10
2022-11-08T14:21:56.873Z,2.00
2022-11-08T14:24:30.503Z,2.25
2022-11-08T14:26:56.754Z,2.05
2022-11-08T14:29:23.550Z,2.80
2022-11-08T14:32:01.329Z,1.80
2022-11-08T14:34:35.143Z,2.25
2022-11-08T14:37:02.220Z,2.42
2022-11-08T14:39:30.245Z,1.83
2022-11-08T14:41:58.069Z,2.03
2022-11-08T14:44:24.636Z,1.95
2022-11-08T14:46:51.364Z,3.17
2022-11-08T14:49:31.970Z,2.17
2022-11-08T14:52:13.635Z,2.20
2022-11-08T14:54:41.278Z,2.47
2022-11-08T14:57:30.670Z,2.20
2022-11-08T14:59:57.168Z,2.53
2022-11-08T15:02:24.027Z,2.45
2022-11-08T15:04:50.296Z,1.98
2022-11-08T15:07:18.818Z,3.35
2022-11-08T15:09:45.491Z,2.17
2022-11-08T15:12:16.690Z,2.38
2022-11-08T15:14:47.926Z,2.22
2022-11-08T15:17:32.489Z,1.95
2022-11-08T15:20:03.129Z,1.63
2022-11-08T15:22:30.687Z,2.28
2022-11-08T15:25:17.431Z,2.35
2022-11-08T15:27:46.496Z,2.20
2022-11-08T15:30:17.135Z,1.88
2022-11-08T15:32:43.537Z,2.10
2022-11-08T15:35:39.372Z,1.98
2022-11-08T15:38:06.957Z,1.70
2022-11-08T15:40:35.788Z,2.65
2022-11-08T15:43:02.701Z,2.42
2022-11-08T15:45:32.318Z,2.58
2022-11-08T15:48:08.030Z,2.38
2022-11-08T15:50:34.307Z,2.40
2022-11-08T15:53:01.625Z,2.15
2022-11-08T15:55:48.930Z,2.08
2022-11-08T15:58:18.358Z,2.97
2022-11-08T16:00:45.959Z,1.83
2022-11-08T16:03:12.248Z,1.90
2022-11-08T16:05:38.511Z,2.65
2022-11-08T16:08:05.164Z,2.33
2022-11-08T16:10:41.530Z,3.05
2022-11-08T16:13:16.217Z,3.00
2022-11-08T16:15:42.521Z,3.08
2022-11-08T16:18:09.977Z,2.50
2022-11-08T16:20:36.918Z,2.60
2022-11-08T16:23:04.731Z,2.53
2022-11-08T16:25:33.519Z,1.90
2022-11-08T16:28:08.309Z,2.30
2022-11-08T16:30:35.145Z,2.15
2022-11-08T16:33:02.135Z,2.78
2022-11-08T16:35:28.416Z,2.90
2022-11-08T16:37:54.714Z,2.75
2022-11-08T16:40:22.763Z,2.85
2022-11-08T16:42:49.982Z,2.75
2022-11-08T16:45:17.030Z,2.85
2022-11-08T16:47:44.440Z,3.30
2022-11-08T16:50:17.931Z,2.50
2022-11-08T16:52:44.726Z,2.65
2022-11-08T16:55:17.289Z,2.75
2022-11-08T16:57:44.421Z,3.28
2022-11-08T17:00:12.419Z,3.30
2022-11-08T17:02:41.761Z,3.05
2022-11-08T17:05:14.515Z,3.50
2022-11-08T17:07:40.783Z,3.78
2022-11-08T17:10:07.335Z,3.80
2022-11-08T17:12:33.593Z,3.20
2022-11-08T17:14:59.882Z,2.88
2022-11-08T17:17:26.142Z,3.05
2022-11-08T17:19:52.382Z,3.17
2022-11-08T17:22:18.625Z,3.30
2022-11-08T17:24:44.900Z,2.88
2022-11-08T17:27:11.149Z,2.50
2022-11-08T17:29:37.398Z,2.70
2022-11-08T17:32:03.698Z,3.35
2022-11-08T17:34:29.967Z,3.10
2022-11-08T17:36:56.442Z,3.03
2022-11-08T17:39:22.681Z,5.03
2022-11-08T17:41:48.954Z,6.72
2022-11-08T17:44:15.272Z,5.97
2022-11-08T17:46:41.643Z,6.82
2022-11-08T17:49:08.725Z,4.78
2022-11-08T17:51:35.284Z,5.70
2022-11-08T17:54:01.698Z,4.82
2022-11-08T17:56:28.030Z,3.35
2022-11-08T17:58:54.420Z,4.53
2022-11-08T18:01:20.773Z,5.03
2022-11-08T18:03:47.498Z,5.85
2022-11-08T18:06:14.326Z,7.55
2022-11-08T18:08:41.338Z,6.05
2022-11-08T18:11:08.006Z,6.88
2022-11-08T18:13:37.169Z,5.10
2022-11-08T18:16:10.632Z,5.45
2022-11-08T18:18:37.170Z,5.30
2022-11-08T18:21:03.706Z,4.50
2022-11-08T18:23:29.979Z,5.43
2022-11-08T18:25:56.323Z,5.05
2022-11-08T18:28:23.010Z,4.85
2022-11-08T18:30:49.765Z,5.72
2022-11-08T18:33:17.102Z,4.55
2022-11-08T18:35:43.909Z,6.07
2022-11-08T18:38:10.785Z,5.63
2022-11-08T18:40:37.071Z,5.82
2022-11-08T18:43:03.461Z,5.85
2022-11-08T18:45:30.227Z,3.83
2022-11-08T18:47:56.572Z,3.95
2022-11-08T18:50:22.888Z,3.90
2022-11-08T18:52:49.224Z,3.58
2022-11-08T18:55:16.013Z,5.22
2022-11-08T18:57:42.506Z,5.43
2022-11-08T19:00:11.774Z,5.75
2022-11-08T19:02:38.306Z,5.43
2022-11-08T19:05:04.879Z,6.80
2022-11-08T19:07:31.230Z,5.32
2022-11-08T19:09:57.499Z,3.63
2022-11-08T19:12:24.798Z,3.97
2022-11-08T19:14:51.157Z,3.47
2022-11-08T19:17:17.504Z,3.58
2022-11-08T19:19:44.169Z,4.30
2022-11-08T19:22:10.545Z,3.72
2022-11-08T19:24:36.903Z,3.30
2022-11-08T19:27:03.226Z,2.97
2022-11-08T19:29:29.469Z,2.85
2022-11-08T19:31:55.753Z,3.13
2022-11-08T19:34:22.034Z,4.50
2022-11-08T19:36:55.540Z,7.13
2022-11-08T19:39:23.441Z,7.28
2022-11-08T19:41:49.778Z,5.90
2022-11-08T19:44:16.766Z,6.28
2022-11-08T19:46:43.177Z,7.00
2022-11-08T19:49:09.942Z,5.45
2022-11-08T19:51:36.346Z,5.68
2022-11-08T19:54:06.894Z,6.13
2022-11-08T19:57:02.701Z,4.47
2022-11-08T19:59:20.675Z,4.55
2022-11-08T20:01:47.276Z,4.25
2022-11-08T20:04:14.726Z,4.18
2022-11-08T20:06:41.592Z,3.83
2022-11-08T20:09:09.235Z,4.35
2022-11-08T20:11:36.463Z,4.70
2022-11-08T20:14:03.736Z,4.10
2022-11-08T20:16:31.588Z,3.78
2022-11-08T20:19:02.487Z,2.45
2022-11-08T20:21:28.765Z,3.08
2022-11-08T20:23:55.106Z,3.42
2022-11-08T20:26:23.596Z,2.65
2022-11-08T20:28:56.517Z,3.40
2022-11-08T20:31:23.552Z,3.75
2022-11-08T20:33:50.557Z,4.28
2022-11-08T20:36:17.729Z,4.43
2022-11-08T20:38:44.478Z,4.25
2022-11-08T20:41:12.026Z,3.58
2022-11-08T20:43:39.678Z,3.17
2022-11-08T20:46:07.345Z,2.95
2022-11-08T20:48:33.692Z,2.80
2022-11-08T20:51:00.843Z,3.30
2022-11-08T20:53:27.923Z,2.67
2022-11-08T20:55:57.663Z,4.03
2022-11-08T20:58:27.828Z,3.92
2022-11-08T21:00:58.955Z,4.20
2022-11-08T21:03:26.184Z,4.45
2022-11-08T21:05:53.175Z,3.67
2022-11-08T21:11:07.079Z,3.38
2022-11-08T21:13:34.753Z,3.80
2022-11-08T21:16:26.867Z,3.05
2022-11-08T21:18:47.685Z,2.92
2022-11-08T21:21:17.804Z,4.78
2022-11-08T21:23:45.018Z,2.83
2022-11-08T21:26:12.283Z,3.38
2022-11-08T21:28:38.935Z,4.00
2022-11-08T21:31:06.157Z,3.50
2022-11-08T21:33:32.596Z,3.47
2022-11-08T21:35:59.108Z,3.60
2022-11-08T21:38:25.542Z,3.10
2022-11-08T21:40:52.266Z,3.88
2022-11-08T21:43:19.352Z,3.50
2022-11-08T21:45:45.978Z,2.80
2022-11-08T21:48:15.316Z,3.63
2022-11-08T21:50:42.083Z,3.72
2022-11-08T21:53:10.598Z,3.70
2022-11-08T21:55:36.875Z,2.90
2022-11-08T21:58:03.181Z,4.55
2022-11-08T22:00:29.582Z,2.20
2022-11-08T22:02:56.239Z,2.60
2022-11-08T22:05:22.573Z,2.55
2022-11-08T22:07:48.909Z,3.08
2022-11-08T22:10:15.269Z,3.05
2022-11-08T22:12:41.594Z,2.80
2022-11-08T22:15:08.897Z,2.00
2022-11-08T22:17:35.297Z,2.38
2022-11-08T22:20:01.954Z,2.70
2022-11-08T22:22:28.248Z,2.33
2022-11-08T22:24:55.572Z,2.97
2022-11-08T22:27:21.841Z,2.08
2022-11-08T22:29:48.093Z,2.40
2022-11-08T22:32:14.371Z,2.45
2022-11-08T22:34:40.636Z,2.35
2022-11-08T22:37:06.928Z,2.15
2022-11-08T22:39:33.229Z,2.53
2022-11-08T22:41:59.549Z,2.53
2022-11-08T22:44:25.891Z,2.47
2022-11-08T22:46:52.190Z,2.65
2022-11-08T22:49:18.498Z,2.83
2022-11-08T22:51:44.820Z,2.38
2022-11-08T22:54:11.354Z,2.10
2022-11-08T22:56:38.140Z,3.42
2022-11-08T22:59:04.497Z,3.75
2022-11-08T23:01:30.972Z,2.55
2022-11-08T23:03:57.264Z,2.45
2022-11-08T23:06:23.559Z,2.58
2022-11-08T23:08:49.865Z,2.20
2022-11-08T23:11:34.906Z,2.05
2022-11-08T23:14:19.614Z,2.72
2022-11-08T23:16:46.445Z,2.20
2022-11-08T23:19:33.320Z,2.05
2022-11-08T23:22:18.695Z,2.55
2022-11-08T23:24:45.047Z,2.58
2022-11-08T23:27:30.903Z,2.67
2022-11-08T23:30:15.822Z,2.08
2022-11-08T23:32:43.665Z,2.90
2022-11-08T23:35:10.190Z,2.22
2022-11-08T23:37:36.721Z,2.45
2022-11-08T23:40:22.414Z,2.65
2022-11-08T23:45:33.767Z,2.38
2022-11-08T23:48:01.000Z,1.70
2022-11-08T23:50:27.287Z,2.75
2022-11-08T23:52:53.530Z,2.17
2022-11-08T23:55:19.857Z,2.10
2022-11-08T23:57:47.195Z,2.10
